Auburn, California
Current Conditions -  °F | °C
As of 4:15 AM on Wednesday 28 Jan 2015 (Local Time) from KAUN Reporting Station
Clear Clear  
Wind Chill: 45°   Ceiling: Unl
Heat Index: 45°   Visibility: 10mi
Dew Point: 34°   Wind: 0mph
Humidity: 66%   Direction: NA
Pressure: 30.25"   Gusts: NA
Location:  38.9°N, 121.07°W
Report Text: KAUN 281215Z AUTO 00000KT 10SM CLR 07/01 A3025 RMK AO1
Loading
Personal Weather Stations






























Interactive Weather Map New forecast layout! Learn more

10-Day Weather Forecast

Advertisements
Track Severe Weather on mobile